createdAt,value
2022-08-18T00:01:16.569Z,27.70
2022-08-18T00:03:56.765Z,27.70
2022-08-18T00:06:31.352Z,27.70
2022-08-18T00:09:03.488Z,27.70
2022-08-18T00:11:40.716Z,27.70
2022-08-18T00:14:21.682Z,27.70
2022-08-18T00:16:53.381Z,27.60
2022-08-18T00:19:45.285Z,27.60
2022-08-18T00:22:15.328Z,27.60
2022-08-18T00:24:47.825Z,27.50
2022-08-18T00:27:22.867Z,27.50
2022-08-18T00:29:53.357Z,27.50
2022-08-18T00:32:23.281Z,27.50
2022-08-18T00:34:51.866Z,27.50
2022-08-18T00:37:20.031Z,27.50
2022-08-18T00:39:52.474Z,27.50
2022-08-18T00:42:27.583Z,27.50
2022-08-18T00:45:01.598Z,27.50
2022-08-18T00:47:42.633Z,27.50
2022-08-18T00:50:15.841Z,27.40
2022-08-18T00:52:50.208Z,27.40
2022-08-18T00:55:21.725Z,27.40
2022-08-18T00:57:53.074Z,27.40
2022-08-18T01:00:22.338Z,27.40
2022-08-18T01:02:56.167Z,27.40
2022-08-18T01:05:32.687Z,27.30
2022-08-18T01:08:01.054Z,27.30
2022-08-18T01:10:34.298Z,27.30
2022-08-18T01:13:02.380Z,27.30
2022-08-18T01:15:30.842Z,27.30
2022-08-18T01:18:20.094Z,27.30
2022-08-18T01:21:16.012Z,27.20
2022-08-18T01:23:47.814Z,27.20
2022-08-18T01:26:16.918Z,27.20
2022-08-18T01:28:47.374Z,27.20
2022-08-18T01:31:34.860Z,27.10
2022-08-18T01:34:05.042Z,27.00
2022-08-18T01:36:34.908Z,27.00
2022-08-18T01:39:07.282Z,26.90
2022-08-18T01:41:35.590Z,26.90
2022-08-18T01:44:05.669Z,26.90
2022-08-18T01:46:36.657Z,26.80
2022-08-18T01:49:06.578Z,26.80
2022-08-18T01:51:39.831Z,26.70
2022-08-18T01:54:12.882Z,26.70
2022-08-18T01:56:42.710Z,26.60
2022-08-18T01:59:15.218Z,26.60
2022-08-18T02:01:48.742Z,26.50
2022-08-18T02:04:39.008Z,26.50
2022-08-18T02:07:10.569Z,26.40
2022-08-18T02:09:43.888Z,26.40
2022-08-18T02:12:12.632Z,26.40
2022-08-18T02:14:42.213Z,26.30
2022-08-18T02:17:12.483Z,26.30
2022-08-18T02:19:43.707Z,26.30
2022-08-18T02:22:13.431Z,26.30
2022-08-18T02:24:43.696Z,26.20
2022-08-18T02:27:13.342Z,26.10
2022-08-18T02:29:41.686Z,26.00
2022-08-18T02:32:10.560Z,25.90
2022-08-18T02:34:38.657Z,25.70
2022-08-18T02:37:08.424Z,25.50
2022-08-18T02:39:39.015Z,25.40
2022-08-18T02:42:09.842Z,25.20
2022-08-18T02:44:38.107Z,25.10
2022-08-18T02:47:06.710Z,24.90
2022-08-18T02:49:36.852Z,24.80
2022-08-18T02:52:06.479Z,24.70
2022-08-18T02:54:35.256Z,24.60
2022-08-18T02:57:11.122Z,24.60
2022-08-18T02:59:39.891Z,24.50
2022-08-18T03:02:10.180Z,24.50
2022-08-18T03:04:38.470Z,24.40
2022-08-18T03:07:09.692Z,24.40
2022-08-18T03:09:39.921Z,24.30
2022-08-18T03:12:09.770Z,24.30
2022-08-18T03:14:40.370Z,24.30
2022-08-18T03:17:10.290Z,24.30
2022-08-18T03:19:38.644Z,24.30
2022-08-18T03:22:28.154Z,24.30
2022-08-18T03:24:57.698Z,24.30
2022-08-18T03:27:28.191Z,24.40
2022-08-18T03:29:56.540Z,24.40
2022-08-18T03:32:26.886Z,24.40
2022-08-18T03:34:55.673Z,24.40
2022-08-18T03:37:23.824Z,24.40
2022-08-18T03:39:53.330Z,24.40
2022-08-18T03:42:21.435Z,24.40
2022-08-18T03:44:51.423Z,24.40
2022-08-18T03:47:19.708Z,24.40
2022-08-18T03:49:49.439Z,24.40
2022-08-18T03:52:18.115Z,24.50
2022-08-18T03:54:46.642Z,24.50
2022-08-18T03:57:15.153Z,24.50
2022-08-18T03:59:44.119Z,24.50
2022-08-18T04:02:15.858Z,24.50
2022-08-18T04:04:43.988Z,24.50
2022-08-18T04:07:17.049Z,24.50
2022-08-18T04:09:46.470Z,24.50
2022-08-18T04:12:17.908Z,24.50
2022-08-18T04:14:49.636Z,24.60
2022-08-18T04:17:23.439Z,24.60
2022-08-18T04:19:52.557Z,24.60
2022-08-18T04:22:20.930Z,24.60
2022-08-18T04:24:50.815Z,24.60
2022-08-18T04:27:20.246Z,24.60
2022-08-18T04:29:49.204Z,24.60
2022-08-18T04:32:19.867Z,24.60
2022-08-18T04:34:51.527Z,24.60
2022-08-18T04:37:20.646Z,24.70
2022-08-18T04:39:49.568Z,25.60
2022-08-18T04:42:17.700Z,24.60
2022-08-18T04:44:45.922Z,24.70
2022-08-18T04:47:14.731Z,24.70
2022-08-18T04:49:45.223Z,24.70
2022-08-18T04:52:39.925Z,24.60
2022-08-18T04:55:10.627Z,24.60
2022-08-18T04:57:39.184Z,24.60
2022-08-18T05:00:09.117Z,24.60
2022-08-18T05:02:37.242Z,24.60
2022-08-18T05:05:07.981Z,24.60
2022-08-18T05:07:36.344Z,24.60
2022-08-18T05:10:07.685Z,24.60
2022-08-18T05:12:36.530Z,24.50
2022-08-18T05:15:09.372Z,24.50
2022-08-18T05:17:39.769Z,24.50
2022-08-18T05:20:11.539Z,24.50
2022-08-18T05:22:40.841Z,24.50
2022-08-18T05:25:11.141Z,24.50
2022-08-18T05:27:44.441Z,24.50
2022-08-18T05:30:16.068Z,24.50
2022-08-18T05:32:49.632Z,24.50
2022-08-18T05:35:26.276Z,24.50
2022-08-18T05:38:06.055Z,24.50
2022-08-18T05:40:36.352Z,24.50
2022-08-18T05:43:06.288Z,24.50
2022-08-18T05:45:35.435Z,24.40
2022-08-18T05:48:04.271Z,24.40
2022-08-18T05:50:36.916Z,24.40
2022-08-18T05:53:13.966Z,24.40
2022-08-18T05:56:05.097Z,24.40
2022-08-18T05:58:36.871Z,24.40
2022-08-18T06:01:12.170Z,24.50
2022-08-18T06:03:47.123Z,24.50
2022-08-18T06:06:20.903Z,24.50
2022-08-18T06:08:54.708Z,24.50
2022-08-18T06:11:23.354Z,24.60
2022-08-18T06:13:54.271Z,24.60
2022-08-18T06:16:37.947Z,24.60
2022-08-18T06:19:26.850Z,24.70
2022-08-18T06:22:09.191Z,24.70
2022-08-18T06:24:43.009Z,24.80
2022-08-18T06:27:19.970Z,24.80
2022-08-18T06:30:04.269Z,24.80
2022-08-18T06:32:52.875Z,24.80
2022-08-18T06:35:33.748Z,24.90
2022-08-18T06:38:28.197Z,23.90
2022-08-18T06:41:03.237Z,25.00
2022-08-18T06:43:36.667Z,25.00
2022-08-18T06:46:12.083Z,25.00
2022-08-18T06:48:48.586Z,25.10
2022-08-18T06:51:21.657Z,25.10
2022-08-18T06:54:00.690Z,25.10
2022-08-18T06:56:37.828Z,25.20
2022-08-18T06:59:23.661Z,25.20
2022-08-18T07:01:55.470Z,25.30
2022-08-18T07:04:38.243Z,25.30
2022-08-18T07:07:18.990Z,25.30
2022-08-18T07:09:50.562Z,25.40
2022-08-18T07:12:32.177Z,25.40
2022-08-18T07:15:06.206Z,25.50
2022-08-18T07:17:43.369Z,25.50
2022-08-18T07:20:24.532Z,25.50
2022-08-18T07:22:54.115Z,25.50
2022-08-18T07:25:29.425Z,25.60
2022-08-18T07:27:58.158Z,25.60
2022-08-18T07:30:36.061Z,25.60
2022-08-18T07:33:14.135Z,25.60
2022-08-18T07:35:50.945Z,25.70
2022-08-18T07:38:44.067Z,25.70
2022-08-18T07:41:18.490Z,25.70
2022-08-18T07:44:01.158Z,25.70
2022-08-18T07:46:36.643Z,25.70
2022-08-18T07:49:06.888Z,25.70
2022-08-18T07:51:47.699Z,25.70
2022-08-18T07:54:52.769Z,25.70
2022-08-18T07:57:35.294Z,25.80
2022-08-18T08:00:26.725Z,25.80
2022-08-18T08:03:26.621Z,25.80
2022-08-18T08:06:03.426Z,25.80
2022-08-18T08:08:40.265Z,25.90
2022-08-18T08:11:21.906Z,25.80
2022-08-18T08:14:07.659Z,25.90
2022-08-18T08:16:44.861Z,25.90
2022-08-18T08:19:56.801Z,25.90
2022-08-18T08:22:25.283Z,25.90
2022-08-18T08:25:01.602Z,25.90
2022-08-18T08:27:39.557Z,25.90
2022-08-18T08:30:12.157Z,26.00
2022-08-18T08:32:49.655Z,26.00
2022-08-18T08:35:50.513Z,26.00
2022-08-18T08:38:39.859Z,26.00
2022-08-18T08:41:13.505Z,26.10
2022-08-18T08:43:45.131Z,26.10
2022-08-18T08:46:21.499Z,26.10
2022-08-18T08:48:55.696Z,26.20
2022-08-18T08:51:35.379Z,26.10
2022-08-18T08:54:09.162Z,26.20
2022-08-18T08:56:48.243Z,26.20
2022-08-18T08:59:19.697Z,26.20
2022-08-18T09:02:00.548Z,26.30
2022-08-18T09:04:55.791Z,26.30
2022-08-18T09:07:51.932Z,26.40
2022-08-18T09:10:50.424Z,26.40
2022-08-18T09:13:47.794Z,26.40
2022-08-18T09:16:24.575Z,26.50
2022-08-18T09:19:14.212Z,26.50
2022-08-18T09:21:46.750Z,26.50
2022-08-18T09:24:24.511Z,26.60
2022-08-18T09:26:55.034Z,26.60
2022-08-18T09:29:27.885Z,26.60
2022-08-18T09:32:35.718Z,26.60
2022-08-18T09:35:19.863Z,26.70
2022-08-18T09:38:11.407Z,26.80
2022-08-18T09:41:06.582Z,26.80
2022-08-18T09:43:40.326Z,26.80
2022-08-18T09:49:40.236Z,26.90
2022-08-18T09:52:58.381Z,26.90
2022-08-18T09:56:00.711Z,27.00
2022-08-18T09:58:54.151Z,27.00
2022-08-18T10:01:38.542Z,27.00
2022-08-18T10:04:30.700Z,27.00
2022-08-18T10:07:18.885Z,27.10
2022-08-18T10:13:11.231Z,27.10
2022-08-18T10:15:47.697Z,27.20
2022-08-18T10:18:53.238Z,27.30
2022-08-18T10:21:31.330Z,27.30
2022-08-18T10:24:35.086Z,27.40
2022-08-18T10:27:05.156Z,27.40
2022-08-18T10:29:58.871Z,27.50
2022-08-18T10:32:54.025Z,27.50
2022-08-18T10:35:58.266Z,27.60
2022-08-18T10:38:45.867Z,27.60
2022-08-18T10:41:30.954Z,27.60
2022-08-18T10:44:04.963Z,27.70
2022-08-18T10:46:51.967Z,27.70
2022-08-18T10:49:26.240Z,27.80
2022-08-18T10:52:24.082Z,27.80
2022-08-18T10:55:48.393Z,27.80
2022-08-18T10:58:47.925Z,27.80
2022-08-18T11:01:39.563Z,27.90
2022-08-18T11:04:34.538Z,27.90
2022-08-18T11:07:10.326Z,27.90
2022-08-18T11:09:41.561Z,28.00
2022-08-18T11:12:13.431Z,28.00
2022-08-18T11:15:22.545Z,28.00
2022-08-18T11:21:33.635Z,28.20
2022-08-18T11:24:13.409Z,28.30
2022-08-18T11:26:45.184Z,28.40
2022-08-18T11:29:25.372Z,28.50
2022-08-18T11:31:59.453Z,28.60
2022-08-18T11:34:36.721Z,28.70
2022-08-18T11:37:09.127Z,28.80
2022-08-18T11:39:50.425Z,29.00
2022-08-18T11:45:17.816Z,29.20
2022-08-18T11:48:03.502Z,29.30
2022-08-18T11:50:33.780Z,29.40
2022-08-18T11:53:19.332Z,29.50
2022-08-18T11:56:14.261Z,29.50
2022-08-18T11:58:46.685Z,29.50
2022-08-18T12:01:42.235Z,29.60
2022-08-18T12:04:24.031Z,29.60
2022-08-18T12:10:19.004Z,29.50
2022-08-18T12:12:53.468Z,29.50
2022-08-18T12:18:28.958Z,29.60
2022-08-18T12:20:59.294Z,29.50
2022-08-18T12:23:39.085Z,29.50
2022-08-18T12:26:27.377Z,29.50
2022-08-18T12:29:09.000Z,29.50
2022-08-18T12:31:42.649Z,29.50
2022-08-18T12:34:17.968Z,29.50
2022-08-18T12:36:54.605Z,29.60
2022-08-18T12:39:23.292Z,29.60
2022-08-18T12:41:52.611Z,29.70
2022-08-18T12:44:22.670Z,29.70
2022-08-18T12:46:55.985Z,29.80
2022-08-18T12:49:26.469Z,29.90
2022-08-18T12:51:55.761Z,30.00
2022-08-18T12:54:25.274Z,30.10
2022-08-18T12:56:56.693Z,30.20
2022-08-18T12:59:26.762Z,30.40
2022-08-18T13:02:02.068Z,30.60
2022-08-18T13:07:21.021Z,31.00
2022-08-18T13:09:53.996Z,31.20
2022-08-18T13:12:24.254Z,31.40
2022-08-18T13:14:55.426Z,31.60
2022-08-18T13:17:30.518Z,31.80
2022-08-18T13:20:04.803Z,32.00
2022-08-18T13:22:33.629Z,32.20
2022-08-18T13:25:03.910Z,32.30
2022-08-18T13:27:35.618Z,32.50
2022-08-18T13:30:29.195Z,32.70
2022-08-18T13:33:02.601Z,32.80
2022-08-18T13:35:38.350Z,33.00
2022-08-18T13:38:20.656Z,33.20
2022-08-18T13:40:55.210Z,33.30
2022-08-18T13:43:34.481Z,33.50
2022-08-18T13:46:05.232Z,33.60
2022-08-18T13:48:34.302Z,33.70
2022-08-18T13:51:04.739Z,33.80
2022-08-18T13:53:37.530Z,33.90
2022-08-18T13:56:18.008Z,34.00
2022-08-18T13:58:53.189Z,34.20
2022-08-18T14:01:44.407Z,34.20
2022-08-18T14:04:15.044Z,34.30
2022-08-18T14:06:51.166Z,34.40
2022-08-18T14:09:28.101Z,34.50
2022-08-18T14:12:06.478Z,34.60
2022-08-18T14:14:35.128Z,34.70
2022-08-18T14:17:06.129Z,34.80
2022-08-18T14:19:53.172Z,34.80
2022-08-18T14:22:41.485Z,34.90
2022-08-18T14:25:28.343Z,34.90
2022-08-18T14:27:57.243Z,34.90
2022-08-18T14:30:25.641Z,34.90
2022-08-18T14:32:55.718Z,34.80
2022-08-18T14:35:32.966Z,34.80
2022-08-18T14:38:05.746Z,34.80
2022-08-18T14:40:34.841Z,34.70
2022-08-18T14:43:06.646Z,34.70
2022-08-18T14:45:36.476Z,34.60
2022-08-18T14:48:11.224Z,34.50
2022-08-18T14:50:48.954Z,34.50
2022-08-18T14:53:20.240Z,34.40
2022-08-18T14:55:52.553Z,34.30
2022-08-18T14:58:21.812Z,34.30
2022-08-18T15:00:53.723Z,34.20
2022-08-18T15:03:28.305Z,34.20
2022-08-18T15:06:04.493Z,34.10
2022-08-18T15:08:35.234Z,34.10
2022-08-18T15:11:11.619Z,34.00
2022-08-18T15:13:41.695Z,34.00
2022-08-18T15:16:13.923Z,33.90
2022-08-18T15:18:45.193Z,33.90
2022-08-18T15:21:38.573Z,33.80
2022-08-18T15:24:28.131Z,33.80
2022-08-18T15:27:05.557Z,33.70
2022-08-18T15:29:35.040Z,33.70
2022-08-18T15:32:10.140Z,33.70
2022-08-18T15:34:47.166Z,33.60
2022-08-18T15:37:22.164Z,33.60
2022-08-18T15:40:06.500Z,33.50
2022-08-18T15:42:37.576Z,33.50
2022-08-18T15:45:11.537Z,33.40
2022-08-18T15:47:42.185Z,33.40
2022-08-18T15:50:21.935Z,33.30
2022-08-18T15:52:58.762Z,33.20
2022-08-18T15:55:37.564Z,33.20
2022-08-18T15:58:11.234Z,33.10
2022-08-18T16:00:45.635Z,33.10
2022-08-18T16:03:15.246Z,33.00
2022-08-18T16:05:53.168Z,33.00
2022-08-18T16:08:23.134Z,33.00
2022-08-18T16:10:52.343Z,32.90
2022-08-18T16:13:21.444Z,32.80
2022-08-18T16:15:50.767Z,32.80
2022-08-18T16:18:21.081Z,32.70
2022-08-18T16:20:52.923Z,32.60
2022-08-18T16:23:25.330Z,32.60
2022-08-18T16:25:53.411Z,32.60
2022-08-18T16:28:35.051Z,32.50
2022-08-18T16:31:04.155Z,32.50
2022-08-18T16:33:32.799Z,32.50
2022-08-18T16:36:06.357Z,32.50
2022-08-18T16:38:34.998Z,32.40
2022-08-18T16:41:12.293Z,32.40
2022-08-18T16:43:44.835Z,32.40
2022-08-18T16:46:14.329Z,32.30
2022-08-18T16:48:44.940Z,32.30
2022-08-18T16:51:20.719Z,32.30
2022-08-18T16:53:49.703Z,32.20
2022-08-18T16:56:20.414Z,32.10
2022-08-18T16:59:07.103Z,32.10
2022-08-18T17:01:53.719Z,32.00
2022-08-18T17:04:24.527Z,32.00
2022-08-18T17:06:54.164Z,31.90
2022-08-18T17:09:23.029Z,31.80
2022-08-18T17:11:52.664Z,31.80
2022-08-18T17:14:21.315Z,31.80
2022-08-18T17:16:54.804Z,31.70
2022-08-18T17:19:24.017Z,31.70
2022-08-18T17:21:54.465Z,31.60
2022-08-18T17:24:31.349Z,31.60
2022-08-18T17:27:23.493Z,31.60
2022-08-18T17:30:01.543Z,31.50
2022-08-18T17:35:09.932Z,31.50
2022-08-18T17:37:49.724Z,31.40
2022-08-18T17:40:21.911Z,31.40
2022-08-18T17:42:51.770Z,31.40
2022-08-18T17:45:21.820Z,31.30
2022-08-18T17:47:58.325Z,31.30
2022-08-18T17:50:48.403Z,31.20
2022-08-18T17:53:18.935Z,31.20
2022-08-18T17:55:52.046Z,31.20
2022-08-18T17:58:27.279Z,31.10
2022-08-18T18:00:55.419Z,31.10
2022-08-18T18:03:23.773Z,31.00
2022-08-18T18:05:54.989Z,31.00
2022-08-18T18:08:49.370Z,31.30
2022-08-18T18:11:17.495Z,30.90
2022-08-18T18:13:46.578Z,30.80
2022-08-18T18:16:27.029Z,30.80
2022-08-18T18:19:00.863Z,30.70
2022-08-18T18:22:00.902Z,30.70
2022-08-18T18:24:24.076Z,30.70
2022-08-18T18:26:52.652Z,30.60
2022-08-18T18:29:29.249Z,30.60
2022-08-18T18:32:02.692Z,30.50
2022-08-18T18:34:35.480Z,30.50
2022-08-18T18:37:03.945Z,30.50
2022-08-18T18:39:36.415Z,30.40
2022-08-18T18:42:17.653Z,30.30
2022-08-18T18:44:53.580Z,30.30
2022-08-18T18:47:42.580Z,30.30
2022-08-18T18:50:17.686Z,30.20
2022-08-18T18:53:00.205Z,30.20
2022-08-18T18:55:35.767Z,30.20
2022-08-18T18:58:13.651Z,30.10
2022-08-18T19:00:53.991Z,30.00
2022-08-18T19:03:29.883Z,30.00
2022-08-18T19:06:15.418Z,30.00
2022-08-18T19:08:55.236Z,29.90
2022-08-18T19:11:31.185Z,29.90
2022-08-18T19:14:02.949Z,29.90
2022-08-18T19:16:39.566Z,29.80
2022-08-18T19:19:37.404Z,29.80
2022-08-18T19:22:09.081Z,29.70
2022-08-18T19:24:43.895Z,29.70
2022-08-18T19:27:25.771Z,29.70
2022-08-18T19:29:58.755Z,29.70
2022-08-18T19:32:36.070Z,29.60
2022-08-18T19:35:11.773Z,29.60
2022-08-18T19:37:56.360Z,29.60
2022-08-18T19:40:30.410Z,29.60
2022-08-18T19:43:07.879Z,29.50
2022-08-18T19:45:43.338Z,29.50
2022-08-18T19:48:18.343Z,29.50
2022-08-18T19:50:52.420Z,29.40
2022-08-18T19:53:45.827Z,29.40
2022-08-18T19:56:27.777Z,29.40
2022-08-18T19:59:34.018Z,29.30
2022-08-18T20:02:18.788Z,29.30
2022-08-18T20:04:59.364Z,29.30
2022-08-18T20:08:13.746Z,29.30
2022-08-18T20:11:00.264Z,29.30
2022-08-18T20:13:33.598Z,29.30
2022-08-18T20:16:15.693Z,29.20
2022-08-18T20:18:46.453Z,29.20
2022-08-18T20:21:39.904Z,29.20
2022-08-18T20:24:33.389Z,29.20
2022-08-18T20:27:32.908Z,29.10
2022-08-18T20:30:27.350Z,29.10
2022-08-18T20:33:20.671Z,29.10
2022-08-18T20:35:55.289Z,29.10
2022-08-18T20:38:34.975Z,29.10
2022-08-18T20:41:39.055Z,29.00
2022-08-18T20:44:38.040Z,29.00
2022-08-18T20:47:17.927Z,29.00
2022-08-18T20:49:59.531Z,29.00
2022-08-18T20:52:39.337Z,29.00
2022-08-18T20:55:17.942Z,29.00
2022-08-18T20:57:48.017Z,29.00
2022-08-18T21:00:22.631Z,28.90
2022-08-18T21:02:57.335Z,28.90
2022-08-18T21:05:29.632Z,28.90
2022-08-18T21:08:13.221Z,28.90
2022-08-18T21:10:51.775Z,28.90
2022-08-18T21:13:30.642Z,28.90
2022-08-18T21:15:59.794Z,28.90
2022-08-18T21:18:29.280Z,28.80
2022-08-18T21:21:00.286Z,28.80
2022-08-18T21:23:31.207Z,28.80
2022-08-18T21:26:00.980Z,28.80
2022-08-18T21:28:37.881Z,28.80
2022-08-18T21:31:42.930Z,28.70
2022-08-18T21:33:59.983Z,28.80
2022-08-18T21:36:32.262Z,28.70
2022-08-18T21:39:05.991Z,28.70
2022-08-18T21:41:42.407Z,28.70
2022-08-18T21:44:17.192Z,28.60
2022-08-18T21:46:46.661Z,28.60
2022-08-18T21:49:25.126Z,28.60
2022-08-18T21:51:54.793Z,28.50
2022-08-18T21:54:26.394Z,28.40
2022-08-18T21:57:19.876Z,28.40
2022-08-18T22:00:17.976Z,28.40
2022-08-18T22:02:47.605Z,28.30
2022-08-18T22:05:28.778Z,28.20
2022-08-18T22:08:21.319Z,28.20
2022-08-18T22:11:52.027Z,28.10
2022-08-18T22:14:53.868Z,28.00
2022-08-18T22:17:35.072Z,27.90
2022-08-18T22:20:38.023Z,27.90
2022-08-18T22:23:36.092Z,27.80
2022-08-18T22:26:13.681Z,27.70
2022-08-18T22:28:53.922Z,27.60
2022-08-18T22:31:23.679Z,27.60
2022-08-18T22:33:53.225Z,27.50
2022-08-18T22:36:24.602Z,27.50
2022-08-18T22:38:53.397Z,27.40
2022-08-18T22:41:23.886Z,27.30
2022-08-18T22:43:55.099Z,27.30
2022-08-18T22:46:25.489Z,27.30
2022-08-18T22:48:55.717Z,27.20
2022-08-18T22:51:26.447Z,27.20
2022-08-18T22:53:55.100Z,27.20
2022-08-18T22:56:34.230Z,27.10
2022-08-18T22:59:13.621Z,27.10
2022-08-18T23:01:46.864Z,27.10
2022-08-18T23:04:16.336Z,27.00
2022-08-18T23:06:52.582Z,27.00
2022-08-18T23:09:23.925Z,27.00
2022-08-18T23:11:55.092Z,26.90
2022-08-18T23:14:24.405Z,26.90
2022-08-18T23:16:53.634Z,26.90
2022-08-18T23:19:22.803Z,26.90
2022-08-18T23:21:52.347Z,26.90
2022-08-18T23:24:22.351Z,26.80
2022-08-18T23:26:50.883Z,26.80
2022-08-18T23:29:22.492Z,26.80
2022-08-18T23:31:52.207Z,26.80
2022-08-18T23:34:23.059Z,26.80
2022-08-18T23:36:57.444Z,26.80
2022-08-18T23:39:27.096Z,26.80
2022-08-18T23:41:55.462Z,26.80
2022-08-18T23:44:27.227Z,26.80
2022-08-18T23:46:56.989Z,26.70
2022-08-18T23:49:26.366Z,26.70
2022-08-18T23:51:56.511Z,26.70
2022-08-18T23:54:27.005Z,26.70
2022-08-18T23:56:55.781Z,26.60
2022-08-18T23:59:26.836Z,26.60
